createdAt,value
2023-03-14T00:01:17.372Z,4.30
2023-03-14T00:03:45.714Z,5.50
2023-03-14T00:06:14.938Z,6.00
2023-03-14T00:08:44.465Z,7.10
2023-03-14T00:11:21.387Z,7.10
2023-03-14T00:13:51.230Z,6.20
2023-03-14T00:16:20.549Z,5.40
2023-03-14T00:18:48.781Z,5.40
2023-03-14T00:21:17.199Z,4.50
2023-03-14T00:23:45.541Z,7.70
2023-03-14T00:26:19.716Z,5.70
2023-03-14T00:28:48.182Z,5.50
2023-03-14T00:31:17.266Z,4.30
2023-03-14T00:33:46.230Z,4.20
2023-03-14T00:36:18.000Z,4.30
2023-03-14T00:38:48.415Z,5.20
2023-03-14T00:41:20.257Z,3.50
2023-03-14T00:43:48.171Z,2.80
2023-03-14T00:46:16.652Z,2.50
2023-03-14T00:48:46.990Z,4.70
2023-03-14T00:51:16.373Z,2.30
2023-03-14T00:53:44.957Z,2.80
2023-03-14T00:56:14.314Z,2.30
2023-03-14T00:58:42.275Z,3.00
2023-03-14T01:01:15.469Z,2.40
2023-03-14T01:03:43.477Z,2.10
2023-03-14T01:06:21.367Z,3.00
2023-03-14T01:08:49.822Z,2.80
2023-03-14T01:11:22.879Z,1.90
2023-03-14T01:13:51.016Z,2.10
2023-03-14T01:16:20.942Z,1.90
2023-03-14T01:18:49.886Z,3.70
2023-03-14T01:21:22.320Z,2.70
2023-03-14T01:23:50.824Z,2.60
2023-03-14T01:26:23.847Z,1.70
2023-03-14T01:28:55.245Z,3.30
2023-03-14T01:31:24.268Z,1.60
2023-03-14T01:33:52.591Z,1.80
2023-03-14T01:36:21.629Z,1.60
2023-03-14T01:38:50.089Z,1.80
2023-03-14T01:41:22.967Z,2.90
2023-03-14T01:43:52.022Z,1.70
2023-03-14T01:46:31.880Z,1.70
2023-03-14T01:49:25.819Z,2.60
2023-03-14T01:52:09.087Z,3.00
2023-03-14T01:54:43.060Z,3.00
2023-03-14T01:59:32.296Z,3.00
2023-03-14T02:01:59.902Z,3.60
2023-03-14T02:04:30.987Z,4.20
2023-03-14T02:07:13.178Z,2.20
2023-03-14T02:09:40.657Z,3.00
2023-03-14T02:12:10.575Z,3.10
2023-03-14T02:14:37.798Z,3.80
2023-03-14T02:17:07.144Z,5.20
2023-03-14T02:19:39.616Z,4.80
2023-03-14T02:22:12.167Z,6.30
2023-03-14T02:24:57.118Z,4.50
2023-03-14T02:27:23.922Z,3.70
2023-03-14T02:29:50.666Z,4.10
2023-03-14T02:32:18.976Z,3.40
2023-03-14T02:34:50.440Z,6.50
2023-03-14T02:37:18.388Z,4.00
2023-03-14T02:39:46.433Z,5.70
2023-03-14T02:42:14.098Z,5.00
2023-03-14T02:45:09.792Z,7.20
2023-03-14T02:47:42.214Z,6.70
2023-03-14T02:50:14.167Z,6.70
2023-03-14T02:52:40.841Z,5.50
2023-03-14T02:55:08.465Z,6.20
2023-03-14T02:57:35.217Z,7.70
2023-03-14T03:00:07.276Z,6.40
2023-03-14T03:02:33.976Z,7.20
2023-03-14T03:05:00.947Z,6.30
2023-03-14T03:07:27.778Z,8.80
2023-03-14T03:09:54.574Z,6.50
2023-03-14T03:12:21.493Z,6.10
2023-03-14T03:14:48.397Z,7.30
2023-03-14T03:17:16.003Z,8.90
2023-03-14T03:19:43.617Z,6.20
2023-03-14T03:22:10.337Z,6.50
2023-03-14T03:24:37.161Z,7.20
2023-03-14T03:27:03.852Z,10.40
2023-03-14T03:29:30.731Z,6.70
2023-03-14T03:31:57.364Z,6.60
2023-03-14T03:34:24.170Z,7.30
2023-03-14T03:36:50.770Z,7.00
2023-03-14T03:39:17.664Z,11.30
2023-03-14T03:41:44.336Z,6.80
2023-03-14T03:44:10.904Z,7.60
2023-03-14T03:46:37.560Z,8.70
2023-03-14T03:49:04.292Z,8.10
2023-03-14T03:51:31.187Z,7.90
2023-03-14T03:53:58.286Z,8.50
2023-03-14T03:56:24.913Z,7.00
2023-03-14T03:58:51.501Z,5.80
2023-03-14T04:01:18.408Z,9.30
2023-03-14T04:03:45.147Z,7.40
2023-03-14T04:06:13.394Z,7.70
2023-03-14T04:08:44.010Z,7.90
2023-03-14T04:11:10.683Z,12.40
2023-03-14T04:27:21.953Z,8.90
2023-03-14T04:29:50.194Z,9.00
2023-03-14T04:32:18.388Z,7.40
2023-03-14T04:34:46.828Z,11.30
2023-03-14T04:37:15.461Z,8.60
2023-03-14T04:39:43.831Z,8.50
2023-03-14T04:42:11.825Z,11.10
2023-03-14T04:44:39.687Z,10.10
2023-03-14T04:47:07.743Z,13.80
2023-03-14T04:49:38.193Z,13.40
2023-03-14T04:58:35.137Z,8.90
2023-03-14T05:01:06.192Z,9.30
2023-03-14T05:03:32.959Z,9.20
2023-03-14T05:06:01.304Z,9.60
2023-03-14T05:08:50.990Z,10.60
2023-03-14T05:11:19.355Z,11.50
2023-03-14T05:13:47.498Z,8.40
2023-03-14T05:16:15.501Z,9.20
2023-03-14T05:19:02.619Z,9.00
2023-03-14T05:21:30.665Z,14.10
2023-03-14T05:23:58.666Z,9.20
2023-03-14T05:26:26.642Z,7.60
2023-03-14T05:28:54.548Z,11.80
2023-03-14T05:31:22.720Z,9.20
2023-03-14T05:33:50.922Z,10.80
2023-03-14T05:36:18.959Z,12.30
2023-03-14T05:38:48.630Z,9.60
2023-03-14T05:41:16.755Z,9.20
2023-03-14T05:43:44.815Z,8.20
2023-03-14T05:46:13.060Z,8.70
2023-03-14T05:48:41.182Z,9.20
2023-03-14T05:51:09.132Z,11.20
2023-03-14T05:53:37.045Z,10.50
2023-03-14T05:56:05.341Z,9.10
2023-03-14T05:58:33.369Z,10.10
2023-03-14T06:01:06.878Z,12.90
2023-03-14T06:03:35.353Z,13.20
2023-03-14T06:06:03.643Z,13.60
2023-03-14T06:08:31.748Z,9.40
2023-03-14T06:10:59.750Z,8.60
2023-03-14T06:13:27.616Z,8.60
2023-03-14T06:15:55.705Z,7.60
2023-03-14T06:18:23.718Z,9.80
2023-03-14T06:20:56.458Z,9.00
2023-03-14T06:25:52.885Z,8.00
2023-03-14T06:28:20.995Z,8.60
2023-03-14T06:30:49.044Z,10.80
2023-03-14T06:33:17.167Z,8.00
2023-03-14T06:35:45.777Z,10.10
2023-03-14T06:38:13.841Z,5.80
2023-03-14T06:40:41.878Z,9.50
2023-03-14T06:43:09.945Z,8.30
2023-03-14T06:45:38.138Z,9.00
2023-03-14T06:48:06.443Z,6.60
2023-03-14T06:50:35.106Z,9.20
2023-03-14T06:53:03.111Z,6.90
2023-03-14T06:55:31.483Z,6.50
2023-03-14T06:57:59.623Z,6.50
2023-03-14T07:00:28.508Z,6.80
2023-03-14T07:02:58.495Z,7.00
2023-03-14T07:05:26.927Z,7.00
2023-03-14T07:07:55.362Z,7.30
2023-03-14T07:10:23.574Z,6.90
2023-03-14T07:12:53.826Z,5.70
2023-03-14T07:15:22.033Z,7.40
2023-03-14T07:17:50.405Z,7.70
2023-03-14T07:20:21.231Z,5.80
2023-03-14T07:22:50.696Z,10.50
2023-03-14T07:25:18.984Z,8.80
2023-03-14T07:27:50.965Z,8.60
2023-03-14T07:30:19.341Z,6.70
2023-03-14T07:32:47.603Z,7.70
2023-03-14T07:35:15.726Z,10.70
2023-03-14T07:37:44.096Z,9.10
2023-03-14T07:40:16.069Z,6.00
2023-03-14T07:42:44.575Z,8.40
2023-03-14T07:45:12.642Z,9.40
2023-03-14T07:47:40.698Z,10.40
2023-03-14T07:50:10.145Z,9.70
2023-03-14T07:52:38.301Z,6.80
2023-03-14T07:55:07.142Z,6.40
2023-03-14T07:57:35.191Z,8.60
2023-03-14T08:00:06.424Z,8.10
2023-03-14T08:02:34.700Z,8.00
2023-03-14T08:05:05.102Z,8.70
2023-03-14T08:07:33.360Z,7.70
2023-03-14T08:10:02.065Z,6.10
2023-03-14T08:12:30.424Z,6.90
2023-03-14T08:15:00.899Z,5.50
2023-03-14T08:17:29.183Z,5.30
2023-03-14T08:19:57.678Z,5.50
2023-03-14T08:22:26.081Z,5.60
2023-03-14T08:24:54.284Z,5.00
2023-03-14T08:27:22.381Z,4.40
2023-03-14T08:29:50.354Z,6.10
2023-03-14T08:32:18.887Z,5.70
2023-03-14T08:34:47.829Z,4.50
2023-03-14T08:37:26.236Z,5.60
2023-03-14T08:39:55.842Z,6.30
2023-03-14T08:42:24.177Z,4.60
2023-03-14T08:44:54.754Z,6.70
2023-03-14T08:47:23.031Z,6.70
2023-03-14T08:49:54.233Z,5.30
2023-03-14T08:52:25.625Z,4.70
2023-03-14T08:54:53.677Z,5.70
2023-03-14T08:57:22.902Z,5.10
2023-03-14T08:59:52.186Z,5.60
2023-03-14T09:02:20.485Z,5.40
2023-03-14T09:04:48.752Z,5.10
2023-03-14T09:07:16.847Z,6.50
2023-03-14T09:09:58.598Z,6.20
2023-03-14T09:12:26.998Z,5.20
2023-03-14T09:14:55.220Z,6.60
2023-03-14T09:17:23.589Z,6.10
2023-03-14T09:19:51.832Z,6.30
2023-03-14T09:22:19.856Z,5.10
2023-03-14T09:24:47.857Z,6.40
2023-03-14T09:27:16.002Z,5.80
2023-03-14T09:29:43.995Z,5.70
2023-03-14T09:32:12.106Z,5.20
2023-03-14T09:34:40.162Z,7.10
2023-03-14T09:37:08.249Z,5.70
2023-03-14T09:39:36.354Z,12.30
2023-03-14T09:42:07.549Z,7.00
2023-03-14T09:44:55.167Z,6.70
2023-03-14T09:47:24.470Z,5.10
2023-03-14T09:49:52.729Z,7.60
2023-03-14T09:52:32.802Z,23.50
2023-03-14T09:55:05.136Z,5.90
2023-03-14T09:57:35.704Z,6.10
2023-03-14T10:00:15.707Z,5.00
2023-03-14T10:03:15.399Z,6.20
2023-03-14T10:05:43.761Z,9.00
2023-03-14T10:08:13.187Z,8.70
2023-03-14T10:10:42.482Z,7.70
2023-03-14T10:13:30.346Z,6.90
2023-03-14T10:16:06.907Z,8.70
2023-03-14T10:18:38.171Z,6.60
2023-03-14T10:21:29.834Z,6.10
2023-03-14T10:24:21.149Z,6.10
2023-03-14T10:26:53.978Z,7.10
2023-03-14T10:29:25.711Z,5.60
2023-03-14T10:32:02.771Z,8.90
2023-03-14T10:34:36.277Z,6.50
2023-03-14T10:37:07.391Z,5.40
2023-03-14T10:39:49.127Z,7.10
2023-03-14T10:42:34.986Z,5.50
2023-03-14T10:45:22.272Z,7.90
2023-03-14T10:47:51.884Z,5.10
2023-03-14T10:50:38.753Z,6.10
2023-03-14T10:53:09.894Z,6.40
2023-03-14T10:55:46.257Z,5.90
2023-03-14T10:58:27.098Z,5.60
2023-03-14T11:01:17.637Z,7.60
2023-03-14T11:03:55.628Z,5.80
2023-03-14T11:06:51.221Z,7.50
2023-03-14T11:09:47.398Z,9.10
2023-03-14T11:12:39.532Z,5.60
2023-03-14T11:15:19.685Z,6.80
2023-03-14T11:18:12.072Z,6.20
2023-03-14T11:21:05.595Z,6.20
2023-03-14T11:23:44.460Z,8.80
2023-03-14T11:26:39.928Z,7.30
2023-03-14T11:29:42.472Z,9.20
2023-03-14T11:32:58.021Z,8.50
2023-03-14T11:35:39.611Z,11.80
2023-03-14T11:38:31.780Z,7.60
2023-03-14T11:41:01.307Z,6.40
2023-03-14T11:43:43.812Z,8.40
2023-03-14T11:46:20.996Z,10.80
2023-03-14T11:49:17.965Z,8.80
2023-03-14T11:51:49.583Z,6.80
2023-03-14T11:54:46.852Z,6.50
2023-03-14T11:57:21.579Z,7.70
2023-03-14T12:00:21.195Z,4.70
2023-03-14T12:02:54.119Z,8.00
2023-03-14T12:06:00.051Z,4.00
2023-03-14T12:09:02.927Z,8.00
2023-03-14T12:11:53.863Z,6.80
2023-03-14T12:14:31.308Z,5.40
2023-03-14T12:17:24.212Z,3.40
2023-03-14T12:23:04.538Z,3.30
2023-03-14T12:25:34.570Z,2.90
2023-03-14T12:28:23.609Z,3.80
2023-03-14T12:30:52.225Z,6.90
2023-03-14T12:33:21.710Z,5.40
2023-03-14T12:35:51.513Z,7.50
2023-03-14T12:38:37.825Z,1.90
2023-03-14T12:41:39.893Z,2.60
2023-03-14T12:44:32.906Z,2.60
2023-03-14T12:49:32.767Z,2.80
2023-03-14T12:52:02.570Z,5.20
2023-03-14T12:55:01.357Z,3.10
2023-03-14T12:57:36.124Z,4.50
2023-03-14T13:00:19.270Z,4.20
2023-03-14T13:02:49.602Z,3.20
2023-03-14T13:05:20.078Z,4.20
2023-03-14T13:07:48.343Z,5.10
2023-03-14T13:10:21.705Z,6.10
2023-03-14T13:13:04.671Z,3.70
2023-03-14T13:15:41.800Z,5.00
2023-03-14T13:18:28.796Z,9.10
2023-03-14T13:21:18.917Z,7.30
2023-03-14T13:24:07.674Z,6.10
2023-03-14T13:26:43.742Z,2.60
2023-03-14T13:29:20.109Z,5.90
2023-03-14T13:31:53.739Z,4.90
2023-03-14T13:34:22.273Z,3.20
2023-03-14T13:36:54.098Z,7.10
2023-03-14T13:39:30.178Z,3.00
2023-03-14T13:42:02.696Z,5.50
2023-03-14T13:47:17.534Z,7.30
2023-03-14T13:49:46.562Z,6.40
2023-03-14T13:52:36.183Z,4.40
2023-03-14T13:55:06.460Z,4.90
2023-03-14T13:57:57.333Z,5.60
2023-03-14T14:00:28.570Z,4.40
2023-03-14T14:02:59.331Z,4.00
2023-03-14T14:05:29.866Z,3.90
2023-03-14T14:07:58.100Z,2.50
2023-03-14T14:10:27.737Z,3.60
2023-03-14T14:13:04.895Z,3.70
2023-03-14T14:15:38.493Z,3.80
2023-03-14T14:18:08.769Z,4.50
2023-03-14T14:20:47.659Z,4.80
2023-03-14T14:23:26.902Z,2.30
2023-03-14T14:25:59.519Z,3.70
2023-03-14T14:31:22.567Z,2.90
2023-03-14T14:33:58.350Z,3.00
2023-03-14T14:36:43.366Z,4.50
2023-03-14T14:39:20.008Z,3.10
2023-03-14T14:41:53.080Z,3.30
2023-03-14T14:44:35.774Z,4.60
2023-03-14T14:47:05.132Z,5.80
2023-03-14T14:49:35.238Z,4.20
2023-03-14T14:52:11.404Z,5.20
2023-03-14T14:54:49.721Z,4.00
2023-03-14T14:57:36.552Z,4.30
2023-03-14T15:00:16.081Z,5.80
2023-03-14T15:02:49.189Z,4.90
2023-03-14T15:05:22.901Z,7.00
2023-03-14T15:07:51.546Z,4.50
2023-03-14T15:10:22.850Z,8.10
2023-03-14T15:12:51.233Z,4.20
2023-03-14T15:15:20.161Z,5.40
2023-03-14T15:17:48.331Z,5.50
2023-03-14T15:20:20.398Z,3.70
2023-03-14T15:22:51.780Z,5.40
2023-03-14T15:25:40.392Z,5.30
2023-03-14T15:28:18.608Z,5.50
2023-03-14T15:30:58.429Z,5.80
2023-03-14T15:33:27.586Z,4.90
2023-03-14T15:35:56.305Z,7.20
2023-03-14T15:38:24.936Z,6.10
2023-03-14T15:40:54.141Z,6.60
2023-03-14T15:43:23.381Z,7.50
2023-03-14T15:45:51.677Z,8.70
2023-03-14T15:48:24.123Z,6.50
2023-03-14T15:50:52.379Z,9.30
2023-03-14T15:53:24.611Z,7.20
2023-03-14T15:55:55.178Z,6.20
2023-03-14T15:58:23.559Z,14.70
2023-03-14T16:00:54.866Z,14.40
2023-03-14T16:03:22.979Z,10.70
2023-03-14T16:05:52.316Z,9.80
2023-03-14T16:08:23.355Z,8.50
2023-03-14T16:10:54.896Z,8.40
2023-03-14T16:13:26.019Z,6.60
2023-03-14T16:16:05.716Z,8.00
2023-03-14T16:18:37.564Z,9.20
2023-03-14T16:21:19.601Z,9.40
2023-03-14T16:23:50.813Z,8.80
2023-03-14T16:26:24.048Z,9.50
2023-03-14T16:28:52.356Z,9.90
2023-03-14T16:31:26.138Z,7.60
2023-03-14T16:33:54.637Z,13.30
2023-03-14T16:36:25.402Z,8.70
2023-03-14T16:38:55.496Z,11.40
2023-03-14T16:41:24.672Z,11.00
2023-03-14T16:44:00.116Z,11.00
2023-03-14T16:46:30.876Z,10.20
2023-03-14T16:48:59.937Z,8.90
2023-03-14T16:51:28.441Z,8.50
2023-03-14T16:53:56.895Z,10.30
2023-03-14T16:56:25.257Z,8.20
2023-03-14T16:59:08.066Z,10.00
2023-03-14T17:04:09.555Z,7.80
2023-03-14T17:06:40.984Z,8.40
2023-03-14T17:09:09.022Z,6.70
2023-03-14T17:11:37.058Z,8.10
2023-03-14T17:14:05.517Z,8.50
2023-03-14T17:16:33.663Z,6.20
2023-03-14T17:19:01.646Z,7.60
2023-03-14T17:21:29.819Z,11.60
2023-03-14T17:23:58.125Z,11.30
2023-03-14T17:26:26.523Z,5.00
2023-03-14T17:28:54.496Z,4.20
2023-03-14T17:31:24.234Z,6.10
2023-03-14T17:33:52.476Z,7.20
2023-03-14T17:36:21.722Z,7.00
2023-03-14T17:38:50.026Z,5.90
2023-03-14T17:41:18.420Z,3.90
2023-03-14T17:43:46.463Z,5.80
2023-03-14T17:46:15.770Z,5.40
2023-03-14T17:48:49.002Z,5.20
2023-03-14T17:51:17.465Z,6.00
2023-03-14T17:53:45.623Z,4.50
2023-03-14T17:56:13.593Z,5.70
2023-03-14T17:58:44.243Z,6.70
2023-03-14T18:01:14.311Z,8.00
2023-03-14T18:03:42.913Z,5.90
2023-03-14T18:06:12.315Z,12.20
2023-03-14T18:08:44.115Z,11.90
2023-03-14T18:11:12.549Z,15.20
2023-03-14T18:13:41.639Z,15.00
2023-03-14T18:16:14.942Z,18.10
2023-03-14T18:18:49.352Z,10.90
2023-03-14T18:21:18.099Z,9.10
2023-03-14T18:23:46.258Z,9.70
2023-03-14T18:26:14.377Z,9.40
2023-03-14T18:28:42.526Z,10.90
2023-03-14T18:31:13.282Z,7.20
2023-03-14T18:33:42.607Z,7.40
2023-03-14T18:36:12.778Z,9.80
2023-03-14T18:38:48.618Z,9.30
2023-03-14T18:41:20.293Z,7.40
2023-03-14T18:43:48.402Z,8.30
2023-03-14T18:46:16.464Z,4.90
2023-03-14T18:48:44.668Z,8.00
2023-03-14T18:51:16.025Z,7.10
2023-03-14T18:53:45.649Z,6.30
2023-03-14T18:56:15.000Z,7.00
2023-03-14T18:58:42.998Z,9.20
2023-03-14T19:01:12.695Z,9.30
2023-03-14T19:03:42.303Z,11.60
2023-03-14T19:06:10.975Z,12.30
2023-03-14T19:08:42.112Z,12.40
2023-03-14T19:11:13.128Z,11.80
2023-03-14T19:13:42.384Z,12.00
2023-03-14T19:16:15.803Z,10.50
2023-03-14T19:18:44.147Z,15.70
2023-03-14T19:21:14.613Z,16.20
2023-03-14T19:23:46.572Z,14.90
2023-03-14T19:26:16.337Z,13.20
2023-03-14T19:28:44.498Z,10.00
2023-03-14T19:31:12.560Z,6.30
2023-03-14T19:33:42.519Z,3.20
2023-03-14T19:36:35.264Z,3.50
2023-03-14T19:39:06.423Z,3.20
2023-03-14T19:41:34.837Z,3.80
2023-03-14T19:44:02.993Z,2.60
2023-03-14T19:46:33.316Z,3.40
2023-03-14T19:49:01.643Z,5.00
2023-03-14T19:51:31.521Z,4.00
2023-03-14T19:54:03.396Z,2.80
2023-03-14T19:56:32.877Z,3.10
2023-03-14T19:59:03.475Z,1.20
2023-03-14T20:01:32.415Z,1.40
2023-03-14T20:04:04.504Z,2.50
2023-03-14T20:06:33.005Z,1.30
2023-03-14T20:09:02.353Z,1.60
2023-03-14T20:11:30.433Z,2.80
2023-03-14T20:13:58.478Z,1.50
2023-03-14T20:16:26.627Z,1.70
2023-03-14T20:18:54.876Z,1.80
2023-03-14T20:21:23.892Z,3.70
2023-03-14T20:23:52.369Z,3.70
2023-03-14T20:26:20.746Z,2.70
2023-03-14T20:28:48.965Z,2.80
2023-03-14T20:31:19.177Z,2.10
2023-03-14T20:33:48.166Z,2.00
2023-03-14T20:36:19.135Z,4.70
2023-03-14T20:38:47.186Z,3.50
2023-03-14T20:41:17.989Z,2.80
2023-03-14T20:43:46.222Z,3.60
2023-03-14T20:46:17.460Z,1.70
2023-03-14T20:48:45.544Z,1.60
2023-03-14T20:51:14.443Z,3.00
2023-03-14T20:53:42.665Z,2.90
2023-03-14T20:56:10.744Z,3.00
2023-03-14T20:58:39.442Z,3.30
2023-03-14T21:01:07.605Z,3.40
2023-03-14T21:03:43.285Z,3.30
2023-03-14T21:06:13.108Z,3.20
2023-03-14T21:08:42.724Z,3.60
2023-03-14T21:11:10.734Z,5.10
2023-03-14T21:13:38.899Z,5.70
2023-03-14T21:16:07.900Z,3.10
2023-03-14T21:18:35.975Z,3.00
2023-03-14T21:21:04.212Z,4.30
2023-03-14T21:23:34.629Z,4.00
2023-03-14T21:26:02.982Z,3.60
2023-03-14T21:28:31.217Z,3.40
2023-03-14T21:31:11.790Z,3.90
2023-03-14T21:33:40.258Z,4.00
2023-03-14T21:36:09.031Z,2.80
2023-03-14T21:38:37.269Z,3.40
2023-03-14T21:41:07.737Z,6.00
2023-03-14T21:43:35.741Z,5.60
2023-03-14T21:46:03.874Z,5.50
2023-03-14T21:48:31.970Z,4.20
2023-03-14T21:51:00.094Z,7.70
2023-03-14T21:53:30.076Z,5.50
2023-03-14T21:55:58.816Z,7.20
2023-03-14T21:58:26.909Z,7.90
2023-03-14T22:01:02.516Z,4.50
2023-03-14T22:03:34.069Z,8.30
2023-03-14T22:06:02.953Z,8.10
2023-03-14T22:08:31.155Z,7.80
2023-03-14T22:10:59.299Z,8.90
2023-03-14T22:13:29.910Z,9.00
2023-03-14T22:15:58.140Z,10.70
2023-03-14T22:18:27.325Z,9.10
2023-03-14T22:20:55.730Z,10.50
2023-03-14T22:23:23.696Z,10.60
2023-03-14T22:25:54.162Z,11.00
2023-03-14T22:28:22.397Z,10.50
2023-03-14T22:30:51.555Z,7.60
2023-03-14T22:33:20.473Z,9.30
2023-03-14T22:35:53.382Z,7.80
2023-03-14T22:38:21.808Z,6.80
2023-03-14T22:40:49.974Z,10.30
2023-03-14T22:43:18.192Z,11.80
2023-03-14T22:45:47.152Z,8.70
2023-03-14T22:48:15.447Z,7.50
2023-03-14T22:50:43.921Z,8.40
2023-03-14T22:53:11.905Z,9.00
2023-03-14T22:55:40.304Z,9.80
2023-03-14T22:58:09.177Z,6.60
2023-03-14T23:00:38.466Z,7.60
2023-03-14T23:03:06.514Z,9.80
2023-03-14T23:05:34.497Z,8.90
2023-03-14T23:08:02.472Z,11.60
2023-03-14T23:10:33.184Z,8.70
2023-03-14T23:13:01.471Z,12.50
2023-03-14T23:15:29.436Z,11.20
2023-03-14T23:17:57.653Z,10.30
2023-03-14T23:20:26.698Z,8.50
2023-03-14T23:22:54.739Z,8.10
2023-03-14T23:25:22.730Z,10.40
2023-03-14T23:27:54.250Z,12.70
2023-03-14T23:30:22.782Z,9.40
2023-03-14T23:32:51.096Z,8.10
2023-03-14T23:35:19.262Z,6.90
2023-03-14T23:37:49.528Z,9.90
2023-03-14T23:40:18.251Z,14.20
2023-03-14T23:42:48.529Z,11.20
2023-03-14T23:45:16.534Z,11.10
2023-03-14T23:47:44.493Z,10.00
2023-03-14T23:50:12.459Z,8.40
2023-03-14T23:52:40.457Z,8.10
2023-03-14T23:55:09.012Z,9.40
2023-03-14T23:57:36.907Z,8.70
